sensor_id;sensor_type;location;lat;lon;timestamp;temperature;humidity
8248;DHT22;4164;49.844;8.830;2024-01-07T00:00:13;5.40;1.00
8248;DHT22;4164;49.844;8.830;2024-01-07T00:02:41;5.30;1.00
8248;DHT22;4164;49.844;8.830;2024-01-07T00:05:09;5.30;1.00
8248;DHT22;4164;49.844;8.830;2024-01-07T00:07:35;5.20;1.60
8248;DHT22;4164;49.844;8.830;2024-01-07T00:10:00;5.20;37.90
8248;DHT22;4164;49.844;8.830;2024-01-07T00:12:26;5.20;13.10
8248;DHT22;4164;49.844;8.830;2024-01-07T00:14:51;5.20;38.70
8248;DHT22;4164;49.844;8.830;2024-01-07T00:17:17;5.20;20.80
8248;DHT22;4164;49.844;8.830;2024-01-07T00:19:42;5.30;99.90
8248;DHT22;4164;49.844;8.830;2024-01-07T00:22:08;5.30;31.30
8248;DHT22;4164;49.844;8.830;2024-01-07T00:24:33;5.20;1.00
8248;DHT22;4164;49.844;8.830;2024-01-07T00:26:59;5.20;1.00
8248;DHT22;4164;49.844;8.830;2024-01-07T00:29:28;5.20;1.00
8248;DHT22;4164;49.844;8.830;2024-01-07T00:31:53;5.20;1.00
8248;DHT22;4164;49.844;8.830;2024-01-07T00:34:19;5.30;1.00
8248;DHT22;4164;49.844;8.830;2024-01-07T00:36:44;5.20;1.00
8248;DHT22;4164;49.844;8.830;2024-01-07T00:39:10;5.10;1.00
8248;DHT22;4164;49.844;8.830;2024-01-07T00:41:35;5.20;1.00
8248;DHT22;4164;49.844;8.830;2024-01-07T00:44:01;5.20;1.00
8248;DHT22;4164;49.844;8.830;2024-01-07T00:46:29;5.20;1.00
8248;DHT22;4164;49.844;8.830;2024-01-07T00:48:55;5.30;1.00
8248;DHT22;4164;49.844;8.830;2024-01-07T00:51:20;5.20;1.00
8248;DHT22;4164;49.844;8.830;2024-01-07T00:53:46;5.10;1.00
8248;DHT22;4164;49.844;8.830;2024-01-07T00:56:11;5.10;1.00
8248;DHT22;4164;49.844;8.830;2024-01-07T00:58:40;5.20;1.00
8248;DHT22;4164;49.844;8.830;2024-01-07T01:01:05;5.20;1.00
8248;DHT22;4164;49.844;8.830;2024-01-07T01:03:31;5.20;1.00
8248;DHT22;4164;49.844;8.830;2024-01-07T01:05:57;5.20;1.00
8248;DHT22;4164;49.844;8.830;2024-01-07T01:08:22;5.10;1.00
8248;DHT22;4164;49.844;8.830;2024-01-07T01:10:48;5.20;1.00
8248;DHT22;4164;49.844;8.830;2024-01-07T01:13:14;5.20;1.00
8248;DHT22;4164;49.844;8.830;2024-01-07T01:15:39;5.30;1.00
8248;DHT22;4164;49.844;8.830;2024-01-07T01:18:05;5.20;1.00
8248;DHT22;4164;49.844;8.830;2024-01-07T01:20:31;5.20;1.00
8248;DHT22;4164;49.844;8.830;2024-01-07T01:22:56;5.20;1.00
8248;DHT22;4164;49.844;8.830;2024-01-07T01:25:22;5.20;1.00
8248;DHT22;4164;49.844;8.830;2024-01-07T01:27:47;5.20;1.00
8248;DHT22;4164;49.844;8.830;2024-01-07T01:30:13;5.10;1.00
8248;DHT22;4164;49.844;8.830;2024-01-07T01:32:39;5.00;1.00
8248;DHT22;4164;49.844;8.830;2024-01-07T01:35:05;5.10;1.00
8248;DHT22;4164;49.844;8.830;2024-01-07T01:37:31;5.20;1.00
8248;DHT22;4164;49.844;8.830;2024-01-07T01:39:58;5.10;1.00
8248;DHT22;4164;49.844;8.830;2024-01-07T01:42:24;5.10;1.00
8248;DHT22;4164;49.844;8.830;2024-01-07T01:44:49;5.20;1.00
8248;DHT22;4164;49.844;8.830;2024-01-07T01:47:15;5.10;2.00
8248;DHT22;4164;49.844;8.830;2024-01-07T01:49:41;5.10;1.00
8248;DHT22;4164;49.844;8.830;2024-01-07T01:52:09;5.10;1.00
8248;DHT22;4164;49.844;8.830;2024-01-07T01:54:35;5.20;1.00
8248;DHT22;4164;49.844;8.830;2024-01-07T01:57:01;5.10;1.00
8248;DHT22;4164;49.844;8.830;2024-01-07T01:59:28;5.20;1.00
8248;DHT22;4164;49.844;8.830;2024-01-07T02:01:54;5.20;1.00
8248;DHT22;4164;49.844;8.830;2024-01-07T02:04:20;5.10;1.00
8248;DHT22;4164;49.844;8.830;2024-01-07T02:06:46;5.10;1.00
8248;DHT22;4164;49.844;8.830;2024-01-07T02:09:12;4.90;1.00
8248;DHT22;4164;49.844;8.830;2024-01-07T02:11:37;4.90;1.00
8248;DHT22;4164;49.844;8.830;2024-01-07T02:14:03;5.00;1.00
8248;DHT22;4164;49.844;8.830;2024-01-07T02:16:31;4.90;1.00
8248;DHT22;4164;49.844;8.830;2024-01-07T02:18:57;5.00;1.00
8248;DHT22;4164;49.844;8.830;2024-01-07T02:21:22;5.00;1.00
8248;DHT22;4164;49.844;8.830;2024-01-07T02:23:48;5.00;1.00
8248;DHT22;4164;49.844;8.830;2024-01-07T02:26:16;4.90;1.00
8248;DHT22;4164;49.844;8.830;2024-01-07T02:28:42;5.00;1.00
8248;DHT22;4164;49.844;8.830;2024-01-07T02:31:07;5.00;1.00
8248;DHT22;4164;49.844;8.830;2024-01-07T02:33:33;5.10;1.00
8248;DHT22;4164;49.844;8.830;2024-01-07T02:35:58;5.10;1.00
8248;DHT22;4164;49.844;8.830;2024-01-07T02:38:24;5.10;1.00
8248;DHT22;4164;49.844;8.830;2024-01-07T02:40:49;5.10;1.00
8248;DHT22;4164;49.844;8.830;2024-01-07T02:43:15;5.00;1.00
8248;DHT22;4164;49.844;8.830;2024-01-07T02:45:40;4.90;1.00
8248;DHT22;4164;49.844;8.830;2024-01-07T02:48:09;4.80;1.00
8248;DHT22;4164;49.844;8.830;2024-01-07T02:50:34;4.80;1.00
8248;DHT22;4164;49.844;8.830;2024-01-07T02:53:00;4.80;1.00
8248;DHT22;4164;49.844;8.830;2024-01-07T02:55:25;4.70;1.00
8248;DHT22;4164;49.844;8.830;2024-01-07T02:57:51;4.80;1.00
8248;DHT22;4164;49.844;8.830;2024-01-07T03:00:16;4.70;1.00
8248;DHT22;4164;49.844;8.830;2024-01-07T03:02:42;4.70;1.00
8248;DHT22;4164;49.844;8.830;2024-01-07T03:05:08;4.70;1.00
8248;DHT22;4164;49.844;8.830;2024-01-07T03:07:33;4.70;1.00
8248;DHT22;4164;49.844;8.830;2024-01-07T03:09:59;4.70;26.60
8248;DHT22;4164;49.844;8.830;2024-01-07T03:12:25;4.80;30.50
8248;DHT22;4164;49.844;8.830;2024-01-07T03:14:50;4.80;1.00
8248;DHT22;4164;49.844;8.830;2024-01-07T03:17:22;4.70;1.00
8248;DHT22;4164;49.844;8.830;2024-01-07T03:19:49;4.60;27.00
8248;DHT22;4164;49.844;8.830;2024-01-07T03:22:14;4.60;31.00
8248;DHT22;4164;49.844;8.830;2024-01-07T03:24:41;4.60;32.60
8248;DHT22;4164;49.844;8.830;2024-01-07T03:27:07;4.60;69.60
8248;DHT22;4164;49.844;8.830;2024-01-07T03:29:32;4.60;70.50
8248;DHT22;4164;49.844;8.830;2024-01-07T03:31:58;4.60;96.60
8248;DHT22;4164;49.844;8.830;2024-01-07T03:34:24;4.70;99.80
8248;DHT22;4164;49.844;8.830;2024-01-07T03:36:49;4.70;68.90
8248;DHT22;4164;49.844;8.830;2024-01-07T03:39:15;4.70;39.80
8248;DHT22;4164;49.844;8.830;2024-01-07T03:41:40;4.70;17.30
8248;DHT22;4164;49.844;8.830;2024-01-07T03:44:06;4.70;26.40
8248;DHT22;4164;49.844;8.830;2024-01-07T03:46:32;4.70;95.00
8248;DHT22;4164;49.844;8.830;2024-01-07T03:49:00;4.70;36.10
8248;DHT22;4164;49.844;8.830;2024-01-07T03:51:25;4.70;11.60
8248;DHT22;4164;49.844;8.830;2024-01-07T03:53:51;4.70;12.70
8248;DHT22;4164;49.844;8.830;2024-01-07T03:56:16;4.60;15.50
8248;DHT22;4164;49.844;8.830;2024-01-07T03:58:42;4.70;38.60
8248;DHT22;4164;49.844;8.830;2024-01-07T04:01:07;4.70;77.40
8248;DHT22;4164;49.844;8.830;2024-01-07T04:03:33;4.70;35.20
8248;DHT22;4164;49.844;8.830;2024-01-07T04:05:58;4.70;29.90
8248;DHT22;4164;49.844;8.830;2024-01-07T04:08:24;4.70;84.70
8248;DHT22;4164;49.844;8.830;2024-01-07T04:10:50;4.70;20.80
8248;DHT22;4164;49.844;8.830;2024-01-07T04:13:15;4.70;10.50
8248;DHT22;4164;49.844;8.830;2024-01-07T04:15:41;4.70;46.00
8248;DHT22;4164;49.844;8.830;2024-01-07T04:18:06;4.60;34.60
8248;DHT22;4164;49.844;8.830;2024-01-07T04:20:32;4.60;63.80
8248;DHT22;4164;49.844;8.830;2024-01-07T04:22:58;4.60;57.10
8248;DHT22;4164;49.844;8.830;2024-01-07T04:25:26;4.50;72.40
8248;DHT22;4164;49.844;8.830;2024-01-07T04:27:52;4.50;97.60
8248;DHT22;4164;49.844;8.830;2024-01-07T04:30:17;4.50;99.90
8248;DHT22;4164;49.844;8.830;2024-01-07T04:32:49;4.50;99.90
8248;DHT22;4164;49.844;8.830;2024-01-07T04:35:14;4.50;99.90
8248;DHT22;4164;49.844;8.830;2024-01-07T04:37:41;4.40;99.90
8248;DHT22;4164;49.844;8.830;2024-01-07T04:40:07;4.50;99.90
8248;DHT22;4164;49.844;8.830;2024-01-07T04:42:36;4.50;99.90
8248;DHT22;4164;49.844;8.830;2024-01-07T04:45:01;4.50;99.90
8248;DHT22;4164;49.844;8.830;2024-01-07T04:47:31;4.50;99.90
8248;DHT22;4164;49.844;8.830;2024-01-07T04:49:59;4.50;99.90
8248;DHT22;4164;49.844;8.830;2024-01-07T04:52:25;4.50;99.90
8248;DHT22;4164;49.844;8.830;2024-01-07T04:54:52;4.60;99.90
8248;DHT22;4164;49.844;8.830;2024-01-07T04:57:18;4.50;99.90
8248;DHT22;4164;49.844;8.830;2024-01-07T04:59:43;4.50;99.90
8248;DHT22;4164;49.844;8.830;2024-01-07T05:02:10;4.50;99.90
8248;DHT22;4164;49.844;8.830;2024-01-07T05:04:35;4.50;99.90
8248;DHT22;4164;49.844;8.830;2024-01-07T05:07:01;4.60;99.90
8248;DHT22;4164;49.844;8.830;2024-01-07T05:09:27;4.50;99.90
8248;DHT22;4164;49.844;8.830;2024-01-07T05:11:52;4.50;99.90
8248;DHT22;4164;49.844;8.830;2024-01-07T05:14:18;4.60;99.90
8248;DHT22;4164;49.844;8.830;2024-01-07T05:16:43;4.60;99.90
8248;DHT22;4164;49.844;8.830;2024-01-07T05:19:09;4.60;99.90
8248;DHT22;4164;49.844;8.830;2024-01-07T05:21:34;4.50;99.90
8248;DHT22;4164;49.844;8.830;2024-01-07T05:24:00;4.50;99.90
8248;DHT22;4164;49.844;8.830;2024-01-07T05:26:25;4.40;99.90
8248;DHT22;4164;49.844;8.830;2024-01-07T05:28:51;4.50;99.90
8248;DHT22;4164;49.844;8.830;2024-01-07T05:31:17;4.50;99.90
8248;DHT22;4164;49.844;8.830;2024-01-07T05:33:49;4.50;99.90
8248;DHT22;4164;49.844;8.830;2024-01-07T05:36:14;4.60;99.90
8248;DHT22;4164;49.844;8.830;2024-01-07T05:38:43;4.40;99.90
8248;DHT22;4164;49.844;8.830;2024-01-07T05:41:08;4.40;99.90
8248;DHT22;4164;49.844;8.830;2024-01-07T05:43:36;4.40;99.90
8248;DHT22;4164;49.844;8.830;2024-01-07T05:46:02;4.40;99.90
8248;DHT22;4164;49.844;8.830;2024-01-07T05:48:28;4.40;99.90
8248;DHT22;4164;49.844;8.830;2024-01-07T05:50:54;4.40;99.90
8248;DHT22;4164;49.844;8.830;2024-01-07T05:53:20;4.40;99.90
8248;DHT22;4164;49.844;8.830;2024-01-07T05:55:45;4.40;99.90
8248;DHT22;4164;49.844;8.830;2024-01-07T05:58:11;4.40;99.90
8248;DHT22;4164;49.844;8.830;2024-01-07T06:00:39;4.40;99.90
8248;DHT22;4164;49.844;8.830;2024-01-07T06:03:04;4.50;99.90
8248;DHT22;4164;49.844;8.830;2024-01-07T06:05:30;4.50;99.90
8248;DHT22;4164;49.844;8.830;2024-01-07T06:07:56;4.40;99.90
8248;DHT22;4164;49.844;8.830;2024-01-07T06:10:21;4.40;99.90
8248;DHT22;4164;49.844;8.830;2024-01-07T06:12:47;4.50;99.90
8248;DHT22;4164;49.844;8.830;2024-01-07T06:15:12;4.40;99.90
8248;DHT22;4164;49.844;8.830;2024-01-07T06:17:38;4.40;99.90
8248;DHT22;4164;49.844;8.830;2024-01-07T06:20:06;4.40;99.90
8248;DHT22;4164;49.844;8.830;2024-01-07T06:22:33;4.40;99.90
8248;DHT22;4164;49.844;8.830;2024-01-07T06:24:59;4.40;99.90
8248;DHT22;4164;49.844;8.830;2024-01-07T06:27:24;4.40;99.90
8248;DHT22;4164;49.844;8.830;2024-01-07T06:29:52;4.40;99.90
8248;DHT22;4164;49.844;8.830;2024-01-07T06:32:18;4.40;99.90
8248;DHT22;4164;49.844;8.830;2024-01-07T06:34:44;4.40;99.90
8248;DHT22;4164;49.844;8.830;2024-01-07T06:37:09;4.30;99.90
8248;DHT22;4164;49.844;8.830;2024-01-07T06:39:35;4.30;98.40
8248;DHT22;4164;49.844;8.830;2024-01-07T06:42:01;4.30;99.90
8248;DHT22;4164;49.844;8.830;2024-01-07T06:44:26;4.30;98.20
8248;DHT22;4164;49.844;8.830;2024-01-07T06:46:52;4.30;59.40
8248;DHT22;4164;49.844;8.830;2024-01-07T06:49:17;4.30;39.60
8248;DHT22;4164;49.844;8.830;2024-01-07T06:51:46;4.30;32.30
8248;DHT22;4164;49.844;8.830;2024-01-07T06:54:14;4.30;15.20
8248;DHT22;4164;49.844;8.830;2024-01-07T06:56:40;4.20;1.00
8248;DHT22;4164;49.844;8.830;2024-01-07T06:59:05;4.10;1.00
8248;DHT22;4164;49.844;8.830;2024-01-07T07:01:32;4.10;1.00
8248;DHT22;4164;49.844;8.830;2024-01-07T07:03:58;4.10;1.00
8248;DHT22;4164;49.844;8.830;2024-01-07T07:06:26;4.10;1.00
8248;DHT22;4164;49.844;8.830;2024-01-07T07:08:52;4.00;1.00
8248;DHT22;4164;49.844;8.830;2024-01-07T07:11:17;3.90;1.00
8248;DHT22;4164;49.844;8.830;2024-01-07T07:13:43;3.90;1.00
8248;DHT22;4164;49.844;8.830;2024-01-07T07:16:08;3.90;1.00
8248;DHT22;4164;49.844;8.830;2024-01-07T07:18:34;3.80;1.00
8248;DHT22;4164;49.844;8.830;2024-01-07T07:21:00;3.80;1.00
8248;DHT22;4164;49.844;8.830;2024-01-07T07:23:25;3.80;1.00
8248;DHT22;4164;49.844;8.830;2024-01-07T07:25:51;3.80;1.00
8248;DHT22;4164;49.844;8.830;2024-01-07T07:28:16;3.80;1.00
8248;DHT22;4164;49.844;8.830;2024-01-07T07:30:46;3.80;1.00
8248;DHT22;4164;49.844;8.830;2024-01-07T07:33:12;3.80;1.00
8248;DHT22;4164;49.844;8.830;2024-01-07T07:35:39;3.90;1.00
8248;DHT22;4164;49.844;8.830;2024-01-07T07:38:06;3.90;1.00
8248;DHT22;4164;49.844;8.830;2024-01-07T07:40:31;3.90;1.00
8248;DHT22;4164;49.844;8.830;2024-01-07T07:42:57;3.90;1.00
8248;DHT22;4164;49.844;8.830;2024-01-07T07:45:23;3.80;1.00
8248;DHT22;4164;49.844;8.830;2024-01-07T07:47:48;3.70;1.00
8248;DHT22;4164;49.844;8.830;2024-01-07T07:50:14;3.70;1.00
8248;DHT22;4164;49.844;8.830;2024-01-07T07:52:42;3.60;1.00
8248;DHT22;4164;49.844;8.830;2024-01-07T07:55:10;3.60;1.00
8248;DHT22;4164;49.844;8.830;2024-01-07T07:57:36;3.50;1.00
8248;DHT22;4164;49.844;8.830;2024-01-07T08:00:06;3.50;1.00
8248;DHT22;4164;49.844;8.830;2024-01-07T08:02:32;3.50;1.00
8248;DHT22;4164;49.844;8.830;2024-01-07T08:04:58;3.40;1.00
8248;DHT22;4164;49.844;8.830;2024-01-07T08:07:24;3.50;1.00
8248;DHT22;4164;49.844;8.830;2024-01-07T08:09:50;3.50;1.00
8248;DHT22;4164;49.844;8.830;2024-01-07T08:12:16;3.50;1.00
8248;DHT22;4164;49.844;8.830;2024-01-07T08:14:41;3.30;1.00
8248;DHT22;4164;49.844;8.830;2024-01-07T08:17:07;3.40;1.00
8248;DHT22;4164;49.844;8.830;2024-01-07T08:19:33;3.40;1.00
8248;DHT22;4164;49.844;8.830;2024-01-07T08:21:59;3.40;1.00
8248;DHT22;4164;49.844;8.830;2024-01-07T08:24:24;3.40;1.00
8248;DHT22;4164;49.844;8.830;2024-01-07T08:26:50;3.40;1.00
8248;DHT22;4164;49.844;8.830;2024-01-07T08:29:15;3.50;1.00
8248;DHT22;4164;49.844;8.830;2024-01-07T08:31:41;3.50;1.00
8248;DHT22;4164;49.844;8.830;2024-01-07T08:34:08;3.50;1.00
8248;DHT22;4164;49.844;8.830;2024-01-07T08:36:33;3.40;1.00
8248;DHT22;4164;49.844;8.830;2024-01-07T08:38:59;3.40;1.00
8248;DHT22;4164;49.844;8.830;2024-01-07T08:41:25;3.40;1.00
8248;DHT22;4164;49.844;8.830;2024-01-07T08:43:51;3.50;1.00
8248;DHT22;4164;49.844;8.830;2024-01-07T08:46:16;3.50;1.00
8248;DHT22;4164;49.844;8.830;2024-01-07T08:48:42;3.50;1.00
8248;DHT22;4164;49.844;8.830;2024-01-07T08:51:07;3.40;1.00
8248;DHT22;4164;49.844;8.830;2024-01-07T08:53:33;3.30;1.00
8248;DHT22;4164;49.844;8.830;2024-01-07T08:55:59;3.30;1.00
8248;DHT22;4164;49.844;8.830;2024-01-07T08:58:24;3.30;1.00
8248;DHT22;4164;49.844;8.830;2024-01-07T09:00:50;3.30;1.00
8248;DHT22;4164;49.844;8.830;2024-01-07T09:03:15;3.20;1.00
8248;DHT22;4164;49.844;8.830;2024-01-07T09:05:41;3.20;1.00
8248;DHT22;4164;49.844;8.830;2024-01-07T09:08:07;3.20;1.00
8248;DHT22;4164;49.844;8.830;2024-01-07T09:10:32;3.20;1.00
8248;DHT22;4164;49.844;8.830;2024-01-07T09:12:59;3.10;1.00
8248;DHT22;4164;49.844;8.830;2024-01-07T09:15:25;3.10;1.00
8248;DHT22;4164;49.844;8.830;2024-01-07T09:17:51;3.00;1.00
8248;DHT22;4164;49.844;8.830;2024-01-07T09:20:20;3.00;1.00
8248;DHT22;4164;49.844;8.830;2024-01-07T09:22:45;2.90;1.00
8248;DHT22;4164;49.844;8.830;2024-01-07T09:25:11;2.90;1.00
8248;DHT22;4164;49.844;8.830;2024-01-07T09:27:36;2.90;1.00
8248;DHT22;4164;49.844;8.830;2024-01-07T09:30:02;2.90;1.00
8248;DHT22;4164;49.844;8.830;2024-01-07T09:32:34;3.00;1.00
8248;DHT22;4164;49.844;8.830;2024-01-07T09:35:00;2.90;1.00
8248;DHT22;4164;49.844;8.830;2024-01-07T09:37:28;2.90;1.00
8248;DHT22;4164;49.844;8.830;2024-01-07T09:39:54;2.90;1.00
8248;DHT22;4164;49.844;8.830;2024-01-07T09:42:19;3.00;1.00
8248;DHT22;4164;49.844;8.830;2024-01-07T09:44:45;3.00;1.00
8248;DHT22;4164;49.844;8.830;2024-01-07T09:47:15;2.90;1.00
8248;DHT22;4164;49.844;8.830;2024-01-07T09:49:41;2.90;1.00
8248;DHT22;4164;49.844;8.830;2024-01-07T09:52:08;2.90;1.00
8248;DHT22;4164;49.844;8.830;2024-01-07T09:54:36;3.00;1.00
8248;DHT22;4164;49.844;8.830;2024-01-07T09:57:04;2.90;1.00
8248;DHT22;4164;49.844;8.830;2024-01-07T09:59:32;2.90;1.00
8248;DHT22;4164;49.844;8.830;2024-01-07T10:01:59;3.00;1.00
8248;DHT22;4164;49.844;8.830;2024-01-07T10:04:25;2.90;1.00
8248;DHT22;4164;49.844;8.830;2024-01-07T10:06:51;2.90;1.00
8248;DHT22;4164;49.844;8.830;2024-01-07T10:09:20;2.90;1.00
8248;DHT22;4164;49.844;8.830;2024-01-07T10:11:47;2.90;1.00
8248;DHT22;4164;49.844;8.830;2024-01-07T10:14:12;3.00;1.00
8248;DHT22;4164;49.844;8.830;2024-01-07T10:16:39;3.00;1.00
8248;DHT22;4164;49.844;8.830;2024-01-07T10:19:05;3.00;1.00
8248;DHT22;4164;49.844;8.830;2024-01-07T10:21:30;3.00;1.00
8248;DHT22;4164;49.844;8.830;2024-01-07T10:24:16;2.90;1.00
8248;DHT22;4164;49.844;8.830;2024-01-07T10:26:42;3.00;1.00
8248;DHT22;4164;49.844;8.830;2024-01-07T10:29:08;2.90;1.00
8248;DHT22;4164;49.844;8.830;2024-01-07T10:31:34;2.90;1.00
8248;DHT22;4164;49.844;8.830;2024-01-07T10:34:00;3.00;1.00
8248;DHT22;4164;49.844;8.830;2024-01-07T10:36:26;2.90;1.00
8248;DHT22;4164;49.844;8.830;2024-01-07T10:38:52;2.80;1.00
8248;DHT22;4164;49.844;8.830;2024-01-07T10:41:19;2.90;1.00
8248;DHT22;4164;49.844;8.830;2024-01-07T10:43:47;2.80;1.00
8248;DHT22;4164;49.844;8.830;2024-01-07T10:46:14;2.80;1.00
8248;DHT22;4164;49.844;8.830;2024-01-07T10:51:18;2.60;1.00
8248;DHT22;4164;49.844;8.830;2024-01-07T10:53:46;2.60;1.00
8248;DHT22;4164;49.844;8.830;2024-01-07T10:56:18;2.70;1.00
8248;DHT22;4164;49.844;8.830;2024-01-07T10:58:52;2.90;1.00
8248;DHT22;4164;49.844;8.830;2024-01-07T11:01:19;3.20;1.00
8248;DHT22;4164;49.844;8.830;2024-01-07T11:04:03;3.40;1.00
8248;DHT22;4164;49.844;8.830;2024-01-07T11:09:26;3.30;1.00
8248;DHT22;4164;49.844;8.830;2024-01-07T11:11:52;3.00;1.00
8248;DHT22;4164;49.844;8.830;2024-01-07T11:14:38;2.90;1.00
8248;DHT22;4164;49.844;8.830;2024-01-07T11:17:05;2.90;1.00
8248;DHT22;4164;49.844;8.830;2024-01-07T11:19:35;2.80;1.00
8248;DHT22;4164;49.844;8.830;2024-01-07T11:22:23;2.90;1.00
8248;DHT22;4164;49.844;8.830;2024-01-07T11:25:01;3.00;1.00
8248;DHT22;4164;49.844;8.830;2024-01-07T11:27:30;3.00;1.00
8248;DHT22;4164;49.844;8.830;2024-01-07T11:30:05;2.80;1.00
8248;DHT22;4164;49.844;8.830;2024-01-07T11:32:34;2.70;1.00
8248;DHT22;4164;49.844;8.830;2024-01-07T11:35:00;2.60;1.00
8248;DHT22;4164;49.844;8.830;2024-01-07T11:37:26;2.70;1.00
8248;DHT22;4164;49.844;8.830;2024-01-07T11:39:57;2.70;1.00
8248;DHT22;4164;49.844;8.830;2024-01-07T11:42:23;2.60;1.00
8248;DHT22;4164;49.844;8.830;2024-01-07T11:44:55;2.50;1.00
8248;DHT22;4164;49.844;8.830;2024-01-07T11:47:21;2.60;1.00
8248;DHT22;4164;49.844;8.830;2024-01-07T11:49:48;2.60;1.00
8248;DHT22;4164;49.844;8.830;2024-01-07T11:52:16;2.50;1.00
8248;DHT22;4164;49.844;8.830;2024-01-07T11:54:42;2.90;1.00
8248;DHT22;4164;49.844;8.830;2024-01-07T11:57:11;2.50;1.00
8248;DHT22;4164;49.844;8.830;2024-01-07T11:59:36;2.60;1.00
8248;DHT22;4164;49.844;8.830;2024-01-07T12:02:03;2.60;1.00
8248;DHT22;4164;49.844;8.830;2024-01-07T12:04:32;2.60;1.00
8248;DHT22;4164;49.844;8.830;2024-01-07T12:06:58;2.60;1.00
8248;DHT22;4164;49.844;8.830;2024-01-07T12:09:24;2.60;1.00
8248;DHT22;4164;49.844;8.830;2024-01-07T12:11:50;2.50;1.00
8248;DHT22;4164;49.844;8.830;2024-01-07T12:14:17;2.50;1.00
8248;DHT22;4164;49.844;8.830;2024-01-07T12:16:43;2.40;1.00
8248;DHT22;4164;49.844;8.830;2024-01-07T12:19:09;2.40;1.00
8248;DHT22;4164;49.844;8.830;2024-01-07T12:21:35;2.40;1.00
8248;DHT22;4164;49.844;8.830;2024-01-07T12:24:01;2.50;1.00
8248;DHT22;4164;49.844;8.830;2024-01-07T12:26:27;2.50;1.00
8248;DHT22;4164;49.844;8.830;2024-01-07T12:28:54;2.60;1.00
8248;DHT22;4164;49.844;8.830;2024-01-07T12:31:21;2.60;1.00
8248;DHT22;4164;49.844;8.830;2024-01-07T12:33:47;2.50;1.00
8248;DHT22;4164;49.844;8.830;2024-01-07T12:36:15;2.60;1.00
8248;DHT22;4164;49.844;8.830;2024-01-07T12:38:41;3.40;1.00
8248;DHT22;4164;49.844;8.830;2024-01-07T12:41:07;2.70;1.00
8248;DHT22;4164;49.844;8.830;2024-01-07T12:43:33;2.60;1.00
8248;DHT22;4164;49.844;8.830;2024-01-07T12:45:59;2.40;1.00
8248;DHT22;4164;49.844;8.830;2024-01-07T12:48:30;2.50;1.00
8248;DHT22;4164;49.844;8.830;2024-01-07T12:50:56;2.40;1.00
8248;DHT22;4164;49.844;8.830;2024-01-07T12:53:21;2.50;1.00
8248;DHT22;4164;49.844;8.830;2024-01-07T12:55:47;2.50;1.00
8248;DHT22;4164;49.844;8.830;2024-01-07T12:58:15;2.60;1.00
8248;DHT22;4164;49.844;8.830;2024-01-07T13:00:45;2.50;1.00
8248;DHT22;4164;49.844;8.830;2024-01-07T13:03:10;2.40;99.90
8248;DHT22;4164;49.844;8.830;2024-01-07T13:05:43;2.30;1.00
8248;DHT22;4164;49.844;8.830;2024-01-07T13:08:09;2.40;1.00
8248;DHT22;4164;49.844;8.830;2024-01-07T13:10:34;2.50;1.00
8248;DHT22;4164;49.844;8.830;2024-01-07T13:13:00;2.50;99.90
8248;DHT22;4164;49.844;8.830;2024-01-07T13:15:28;2.50;99.90
8248;DHT22;4164;49.844;8.830;2024-01-07T13:17:54;2.60;99.90
8248;DHT22;4164;49.844;8.830;2024-01-07T13:20:19;2.60;99.90
8248;DHT22;4164;49.844;8.830;2024-01-07T13:22:46;2.60;99.90
8248;DHT22;4164;49.844;8.830;2024-01-07T13:25:12;2.60;99.90
8248;DHT22;4164;49.844;8.830;2024-01-07T13:27:38;2.40;99.90
8248;DHT22;4164;49.844;8.830;2024-01-07T13:30:04;2.20;99.90
8248;DHT22;4164;49.844;8.830;2024-01-07T13:32:30;2.20;99.90
8248;DHT22;4164;49.844;8.830;2024-01-07T13:34:55;2.30;99.90
8248;DHT22;4164;49.844;8.830;2024-01-07T13:37:24;2.40;99.90
8248;DHT22;4164;49.844;8.830;2024-01-07T13:39:49;2.30;99.90
8248;DHT22;4164;49.844;8.830;2024-01-07T13:42:15;2.30;99.90
8248;DHT22;4164;49.844;8.830;2024-01-07T13:44:40;2.30;99.90
8248;DHT22;4164;49.844;8.830;2024-01-07T13:47:14;2.20;99.90
8248;DHT22;4164;49.844;8.830;2024-01-07T13:49:41;2.20;99.90
8248;DHT22;4164;49.844;8.830;2024-01-07T13:52:15;2.20;99.90
8248;DHT22;4164;49.844;8.830;2024-01-07T13:54:41;2.20;99.90
8248;DHT22;4164;49.844;8.830;2024-01-07T13:57:10;2.20;99.90
8248;DHT22;4164;49.844;8.830;2024-01-07T13:59:35;2.10;99.90
8248;DHT22;4164;49.844;8.830;2024-01-07T14:02:01;2.10;99.90
8248;DHT22;4164;49.844;8.830;2024-01-07T14:04:28;2.00;99.90
8248;DHT22;4164;49.844;8.830;2024-01-07T14:06:57;2.00;99.90
8248;DHT22;4164;49.844;8.830;2024-01-07T14:09:23;2.00;99.90
8248;DHT22;4164;49.844;8.830;2024-01-07T14:11:49;2.00;99.90
8248;DHT22;4164;49.844;8.830;2024-01-07T14:14:15;2.10;99.90
8248;DHT22;4164;49.844;8.830;2024-01-07T14:16:41;1.90;99.90
8248;DHT22;4164;49.844;8.830;2024-01-07T14:19:06;1.60;99.90
8248;DHT22;4164;49.844;8.830;2024-01-07T14:21:32;1.50;99.90
8248;DHT22;4164;49.844;8.830;2024-01-07T14:23:58;1.40;99.90
8248;DHT22;4164;49.844;8.830;2024-01-07T14:26:23;1.40;99.90
8248;DHT22;4164;49.844;8.830;2024-01-07T14:28:50;1.40;99.90
8248;DHT22;4164;49.844;8.830;2024-01-07T14:31:19;1.30;99.90
8248;DHT22;4164;49.844;8.830;2024-01-07T14:33:44;1.20;99.90
8248;DHT22;4164;49.844;8.830;2024-01-07T14:36:10;1.10;99.90
8248;DHT22;4164;49.844;8.830;2024-01-07T14:38:45;1.10;99.90
8248;DHT22;4164;49.844;8.830;2024-01-07T14:41:20;1.10;99.90
8248;DHT22;4164;49.844;8.830;2024-01-07T14:43:45;1.00;99.90
8248;DHT22;4164;49.844;8.830;2024-01-07T14:46:11;0.90;99.90
8248;DHT22;4164;49.844;8.830;2024-01-07T14:48:36;0.90;99.90
8248;DHT22;4164;49.844;8.830;2024-01-07T14:51:02;0.90;99.90
8248;DHT22;4164;49.844;8.830;2024-01-07T14:53:28;0.90;99.90
8248;DHT22;4164;49.844;8.830;2024-01-07T14:55:54;0.90;99.90
8248;DHT22;4164;49.844;8.830;2024-01-07T14:58:20;0.90;99.90
8248;DHT22;4164;49.844;8.830;2024-01-07T15:00:48;0.80;99.90
8248;DHT22;4164;49.844;8.830;2024-01-07T15:03:13;0.80;99.90
8248;DHT22;4164;49.844;8.830;2024-01-07T15:05:39;0.80;99.90
8248;DHT22;4164;49.844;8.830;2024-01-07T15:08:06;0.80;99.90
8248;DHT22;4164;49.844;8.830;2024-01-07T15:10:32;0.90;99.90
8248;DHT22;4164;49.844;8.830;2024-01-07T15:12:58;0.70;99.90
8248;DHT22;4164;49.844;8.830;2024-01-07T15:15:24;0.70;99.90
8248;DHT22;4164;49.844;8.830;2024-01-07T15:17:57;0.60;99.90
8248;DHT22;4164;49.844;8.830;2024-01-07T15:20:24;0.60;99.90
8248;DHT22;4164;49.844;8.830;2024-01-07T15:22:49;0.40;99.90
8248;DHT22;4164;49.844;8.830;2024-01-07T15:25:15;0.30;99.90
8248;DHT22;4164;49.844;8.830;2024-01-07T15:27:41;0.20;99.90
8248;DHT22;4164;49.844;8.830;2024-01-07T15:30:07;0.20;99.90
8248;DHT22;4164;49.844;8.830;2024-01-07T15:32:33;0.10;99.90
8248;DHT22;4164;49.844;8.830;2024-01-07T15:34:59;0.10;99.90
8248;DHT22;4164;49.844;8.830;2024-01-07T15:37:25;0.10;99.90
8248;DHT22;4164;49.844;8.830;2024-01-07T15:39:50;0.10;99.90
8248;DHT22;4164;49.844;8.830;2024-01-07T15:42:17;0.10;99.90
8248;DHT22;4164;49.844;8.830;2024-01-07T15:44:43;0.10;99.90
8248;DHT22;4164;49.844;8.830;2024-01-07T15:47:09;0.00;99.90
8248;DHT22;4164;49.844;8.830;2024-01-07T15:49:35;0.10;99.90
8248;DHT22;4164;49.844;8.830;2024-01-07T15:52:01;0.20;99.90
8248;DHT22;4164;49.844;8.830;2024-01-07T15:54:26;0.10;99.90
8248;DHT22;4164;49.844;8.830;2024-01-07T15:56:55;0.00;99.90
8248;DHT22;4164;49.844;8.830;2024-01-07T15:59:21;-0.10;99.90
8248;DHT22;4164;49.844;8.830;2024-01-07T16:01:50;-0.10;99.90
8248;DHT22;4164;49.844;8.830;2024-01-07T16:04:16;0.50;99.90
8248;DHT22;4164;49.844;8.830;2024-01-07T16:06:43;-0.20;99.90
8248;DHT22;4164;49.844;8.830;2024-01-07T16:09:12;-0.20;99.90
8248;DHT22;4164;49.844;8.830;2024-01-07T16:11:39;-0.30;99.90
8248;DHT22;4164;49.844;8.830;2024-01-07T16:14:05;-0.40;99.90
8248;DHT22;4164;49.844;8.830;2024-01-07T16:16:30;-0.40;99.90
8248;DHT22;4164;49.844;8.830;2024-01-07T16:18:59;-0.50;99.90
8248;DHT22;4164;49.844;8.830;2024-01-07T16:21:25;-0.50;99.90
8248;DHT22;4164;49.844;8.830;2024-01-07T16:23:51;-0.50;99.90
8248;DHT22;4164;49.844;8.830;2024-01-07T16:26:17;-0.50;99.90